Terminal Aerodrome Forecast
Issued by NWS Upton, NY

Home | Current Version | Previous Version | Text Only | Print | Product List | Glossary On
Versions: 1 2 3 4 5 6 7 8 9 10 11 12 13 14 15 16 17 18 19 20 21 22 23 24 25 26 27 28 29 30 31 32 33 34 35 36 37
000
FTUS41 KOKX 260103 AAA
TAFISP
TAF AMD
KISP 260103Z 2601/2624 25012G20KT 2SM -SHRA BKN004 BKN012
      TEMPO 2602/2603 4SM -SHRA SCT004 BKN012
     FM260300 29014G27KT P6SM FEW025 BKN040
     FM260500 30016G26KT P6SM FEW050 SCT100
     FM261200 28018G27KT P6SM BKN050 BKN250
     FM262300 28013G20KT P6SM FEW060=

USA.gov is the U.S. government's official web portal to all federal, state and local government web resources and services.